Minerva Zenia — SYNB — position and weather

sailwx.info

Track history (hours):
 
Tides and Currents Weather Stations Pressure Air Temp Water Temp Dewpoint Dewpoint Depression Visibility Wind Speed Wind Dir Waves Ship Positions

Minerva Zenia

Last reported at 2014-Jul-13 11:17 UTC. Time now 2014-Jul-28 14:35 UTC.
Position N 54°54' E 004°24'.
Warning: this ship's position is 15 days out of date.

Length 248 m; draft 7.4 m.

Type: Ship. MMSI: 240014000.

Date/timePositionNaut miles runAvg speedWind from/ knotsBaromVisibWave heightAir tempDewpointWater temp
2014-Jul-13 11:17N 54°54' E 004°24'1710.1
2014-Jul-13 09:33N 54°37' E 004°29'10 9.8
2014-Jul-13 08:31N 54°27' E 004°32'9 9.6
2014-Jul-13 07:32N 54°17' E 004°35'10 9.8
2014-Jul-13 06:32N 54°08' E 004°38'10 9.9
2014-Jul-13 05:33N 53°58' E 004°38'1110.8
2014-Jul-13 04:33N 53°50' E 004°26'1110.9
2014-Jul-13 03:33N 53°43' E 004°12'1110.6
2014-Jul-13 02:33N 53°36' E 003°58'1010.2
2014-Jul-13 01:33N 53°29' E 003°45'1010.0
2014-Jul-13 00:33N 53°20' E 003°38'10 9.8
2014-Jul-12 23:33N 53°11' E 003°31'10 9.5
2014-Jul-12 22:33N 53°02' E 003°25'9 9.2
2014-Jul-12 21:33N 52°54' E 003°20'9 8.8
2014-Jul-12 20:32N 52°45' E 003°18'8 8.6
2014-Jul-12 19:33N 52°37' E 003°17'9 9.1
2014-Jul-12 18:33N 52°27' E 003°17'10 9.8
2014-Jul-12 17:33N 52°18' E 003°20'1310.3
2014-Jul-12 16:16N 52°08' E 003°34'7 9.9
2014-Jul-12 15:33N 52°04' E 003°44'9 8.6
2014-Jul-12 14:33N 52°02' E 003°57'1010.1
2014-Jul-12 13:33N 51°56' E 004°11'1 1.0
2014-Jul-12 12:31N 51°55' E 004°12'0 0.0
2014-Jul-12 11:31N 51°55' E 004°12'0 0.0
2014-Jul-12 10:31N 51°55' E 004°12'0 0.0
2014-Jul-12 09:28N 51°55' E 004°12'0 0.0
2014-Jul-12 08:28N 51°55' E 004°12'0 0.0
2014-Jul-12 07:31N 51°55' E 004°12'0 0.0
2014-Jul-12 06:25N 51°55' E 004°12'0 0.0
2014-Jul-12 05:04N 51°55' E 004°12'0 0.0
2014-Jul-12 04:13N 51°55' E 004°12'0 0.0
2014-Jul-12 03:31N 51°55' E 004°12'0 0.0
2014-Jul-12 02:31N 51°55' E 004°12'0 0.0
2014-Jul-12 01:16N 51°55' E 004°12'0 0.0
2014-Jul-12 00:31N 51°55' E 004°12'0 0.0
2014-Jul-11 23:22N 51°55' E 004°12'0 0.0
2014-Jul-11 22:31N 51°55' E 004°12'0 0.0
2014-Jul-11 21:28N 51°55' E 004°12'0 0.0
2014-Jul-11 20:28N 51°55' E 004°12'0 0.0
2014-Jul-11 19:22N 51°55' E 004°12'0 0.0
2014-Jul-11 18:22N 51°55' E 004°12'0 0.0
2014-Jul-11 17:28N 51°55' E 004°12'0 0.0
2014-Jul-11 15:31N 51°55' E 004°12'0 0.0
2014-Jul-11 14:19N 51°55' E 004°12'0 0.0
2014-Jul-11 13:16N 51°55' E 004°12'0 0.0
2014-Jul-11 12:16N 51°55' E 004°12'0 0.0
2014-Jul-11 11:28N 51°55' E 004°12'0 0.0
2014-Jul-11 10:22N 51°55' E 004°12'0 0.0
2014-Jul-11 09:25N 51°55' E 004°12'0 0.0
2014-Jul-11 08:28N 51°55' E 004°12'0 0.0
2014-Jul-11 07:16N 51°55' E 004°12'0 0.0
2014-Jul-11 06:31N 51°55' E 004°12'0 0.0
2014-Jul-11 05:22N 51°55' E 004°12'0 0.0
2014-Jul-11 04:28N 51°55' E 004°12'0 0.0
2014-Jul-11 03:31N 51°55' E 004°12'0 0.0
2014-Jul-11 02:28N 51°55' E 004°12'0 0.0
2014-Jul-11 01:32N 51°55' E 004°12'2 2.1
2014-Jul-11 00:33N 51°57' E 004°10'9 9.4
2014-Jul-10 23:34N 52°00' E 003°56'1010.1
2014-Jul-10 22:34N 51°58' E 003°40'1110.8
2014-Jul-10 21:33N 51°55' E 003°23'1111.4
2014-Jul-10 20:33N 51°53' E 003°05'32 9.4
2014-Jul-10 17:10N 52°24' E 002°51'35112.3
2014-Jul-09 12:33N 57°24' E 008°05'1212.3
2014-Jul-09 11:33N 57°30' E 008°26'6312.7
2014-Jul-09 06:34N 57°51' E 010°17'1312.9
2014-Jul-09 05:34N 57°50' E 010°41'1212.0
2014-Jul-09 04:34N 57°42' E 010°59'1313.0
2014-Jul-09 03:33N 57°33' E 011°16'1211.9
2014-Jul-09 02:33N 57°23' E 011°29'1212.4
2014-Jul-09 01:33N 57°12' E 011°37'1312.3
2014-Jul-09 00:32N 56°60' E 011°44'1212.5
2014-Jul-08 23:33N 56°48' E 011°52'1211.6
2014-Jul-08 22:33N 56°37' E 011°45'9010.7
2014-Jul-08 14:12N 55°11' E 011°03'1111.2
2014-Jul-08 13:13N 55°00' E 010°59'2110.1
2014-Jul-08 11:07N 54°39' E 010°51'911.8
2014-Jul-08 10:22N 54°36' E 011°05'1012.3
2014-Jul-08 09:34N 54°33' E 011°21'1212.4
2014-Jul-08 08:33N 54°27' E 011°41'1211.6
2014-Jul-08 07:34N 54°26' E 012°01'9 9.3
2014-Jul-08 06:33N 54°31' E 012°14'8 8.0
2014-Jul-08 05:33N 54°38' E 012°21'9 9.4
2014-Jul-08 04:33N 54°43' E 012°35'8 8.4
2014-Jul-08 03:34N 54°47' E 012°48'1010.4
2014-Jul-08 02:34N 54°51' E 013°04'1211.9
2014-Jul-08 01:33N 54°55' E 013°24'1211.7
2014-Jul-08 00:33N 54°60' E 013°43'1211.9
2014-Jul-07 23:32N 55°04' E 014°02'1511.9
2014-Jul-07 22:16N 55°16' E 014°20'911.8
2014-Jul-07 21:30N 55°23' E 014°29'1111.5
2014-Jul-07 20:32N 55°30' E 014°45'1111.6
2014-Jul-07 19:33N 55°35' E 015°03'1211.6
2014-Jul-07 18:33N 55°39' E 015°21'1211.7
2014-Jul-07 17:34N 55°42' E 015°42'1111.4
2014-Jul-07 16:34N 55°45' E 016°01'1111.0
2014-Jul-07 15:34N 55°48' E 016°20'1111.0
2014-Jul-07 14:34N 55°50' E 016°39'1211.5
2014-Jul-07 13:33N 55°53' E 016°59'1212.4
2014-Jul-07 12:33N 55°56' E 017°20'1212.3
2014-Jul-07 11:33N 55°60' E 017°42'1312.4
2014-Jul-07 10:31N 56°07' E 018°01'1212.4
2014-Jul-07 09:33N 56°13' E 018°19'2612.1
2014-Jul-07 07:27N 56°30' E 018°53'1112.4
2014-Jul-07 06:33N 56°40' E 019°03'1312.5
2014-Jul-07 05:30N 56°52' E 019°14'1212.4
2014-Jul-07 04:33N 57°02' E 019°25'1612.3
2014-Jul-07 03:15N 57°16' E 019°39'16712.1
2014-Jul-06 13:29N 59°32' E 022°43'1212.5
2014-Jul-06 12:33N 59°35' E 023°05'1212.3
2014-Jul-06 11:33N 59°39' E 023°29'1212.4
2014-Jul-06 10:34N 59°42' E 023°52'1212.2
2014-Jul-06 09:33N 59°46' E 024°15'1212.2
2014-Jul-06 08:33N 59°49' E 024°39'1412.4
2014-Jul-06 07:25N 59°52' E 025°06'1212.4
2014-Jul-06 06:27N 59°54' E 025°30'1112.3
2014-Jul-06 05:33N 59°56' E 025°52'1212.4
2014-Jul-06 04:34N 59°59' E 026°15'1212.1
2014-Jul-06 03:33N 60°01' E 026°39'1212.2
2014-Jul-06 02:33N 59°60' E 027°03'1212.3
2014-Jul-06 01:33N 60°06' E 027°25'  
Track history (hours):
 
Tides and Currents Weather Stations Pressure Air Temp Water Temp Dewpoint Dewpoint Depression Visibility Wind Speed Wind Dir Waves Ship Positions

Minerva Zenia

Last reported at 2014-Jul-13 11:17 UTC. Time now 2014-Jul-28 14:35 UTC.
Position N 54°54' E 004°24'.
Warning: this ship's position is 15 days out of date.

Length 248 m; draft 7.4 m.

Type: Ship. MMSI: 240014000.

Date/timePositionNaut miles runAvg speedWind from/ knotsBaromVisibWave heightAir tempDewpointWater temp
2014-Jul-13 11:17N 54°54' E 004°24'1710.1
2014-Jul-13 09:33N 54°37' E 004°29'10 9.8
2014-Jul-13 08:31N 54°27' E 004°32'9 9.6
2014-Jul-13 07:32N 54°17' E 004°35'10 9.8
2014-Jul-13 06:32N 54°08' E 004°38'10 9.9
2014-Jul-13 05:33N 53°58' E 004°38'1110.8
2014-Jul-13 04:33N 53°50' E 004°26'1110.9
2014-Jul-13 03:33N 53°43' E 004°12'1110.6
2014-Jul-13 02:33N 53°36' E 003°58'1010.2
2014-Jul-13 01:33N 53°29' E 003°45'1010.0
2014-Jul-13 00:33N 53°20' E 003°38'10 9.8
2014-Jul-12 23:33N 53°11' E 003°31'10 9.5
2014-Jul-12 22:33N 53°02' E 003°25'9 9.2
2014-Jul-12 21:33N 52°54' E 003°20'9 8.8
2014-Jul-12 20:32N 52°45' E 003°18'8 8.6
2014-Jul-12 19:33N 52°37' E 003°17'9 9.1
2014-Jul-12 18:33N 52°27' E 003°17'10 9.8
2014-Jul-12 17:33N 52°18' E 003°20'1310.3
2014-Jul-12 16:16N 52°08' E 003°34'7 9.9
2014-Jul-12 15:33N 52°04' E 003°44'9 8.6
2014-Jul-12 14:33N 52°02' E 003°57'1010.1
2014-Jul-12 13:33N 51°56' E 004°11'1 1.0
2014-Jul-12 12:31N 51°55' E 004°12'0 0.0
2014-Jul-12 11:31N 51°55' E 004°12'0 0.0
2014-Jul-12 10:31N 51°55' E 004°12'0 0.0
2014-Jul-12 09:28N 51°55' E 004°12'0 0.0
2014-Jul-12 08:28N 51°55' E 004°12'0 0.0
2014-Jul-12 07:31N 51°55' E 004°12'0 0.0
2014-Jul-12 06:25N 51°55' E 004°12'0 0.0
2014-Jul-12 05:04N 51°55' E 004°12'0 0.0
2014-Jul-12 04:13N 51°55' E 004°12'0 0.0
2014-Jul-12 03:31N 51°55' E 004°12'0 0.0
2014-Jul-12 02:31N 51°55' E 004°12'0 0.0
2014-Jul-12 01:16N 51°55' E 004°12'0 0.0
2014-Jul-12 00:31N 51°55' E 004°12'0 0.0
2014-Jul-11 23:22N 51°55' E 004°12'0 0.0
2014-Jul-11 22:31N 51°55' E 004°12'0 0.0
2014-Jul-11 21:28N 51°55' E 004°12'0 0.0
2014-Jul-11 20:28N 51°55' E 004°12'0 0.0
2014-Jul-11 19:22N 51°55' E 004°12'0 0.0
2014-Jul-11 18:22N 51°55' E 004°12'0 0.0
2014-Jul-11 17:28N 51°55' E 004°12'0 0.0
2014-Jul-11 15:31N 51°55' E 004°12'0 0.0
2014-Jul-11 14:19N 51°55' E 004°12'0 0.0
2014-Jul-11 13:16N 51°55' E 004°12'0 0.0
2014-Jul-11 12:16N 51°55' E 004°12'0 0.0
2014-Jul-11 11:28N 51°55' E 004°12'0 0.0
2014-Jul-11 10:22N 51°55' E 004°12'0 0.0
2014-Jul-11 09:25N 51°55' E 004°12'0 0.0
2014-Jul-11 08:28N 51°55' E 004°12'0 0.0
2014-Jul-11 07:16N 51°55' E 004°12'0 0.0
2014-Jul-11 06:31N 51°55' E 004°12'0 0.0
2014-Jul-11 05:22N 51°55' E 004°12'0 0.0
2014-Jul-11 04:28N 51°55' E 004°12'0 0.0
2014-Jul-11 03:31N 51°55' E 004°12'0 0.0
2014-Jul-11 02:28N 51°55' E 004°12'0 0.0
2014-Jul-11 01:32N 51°55' E 004°12'2 2.1
2014-Jul-11 00:33N 51°57' E 004°10'9 9.4
2014-Jul-10 23:34N 52°00' E 003°56'1010.1
2014-Jul-10 22:34N 51°58' E 003°40'1110.8
2014-Jul-10 21:33N 51°55' E 003°23'1111.4
2014-Jul-10 20:33N 51°53' E 003°05'32 9.4
2014-Jul-10 17:10N 52°24' E 002°51'35112.3
2014-Jul-09 12:33N 57°24' E 008°05'1212.3
2014-Jul-09 11:33N 57°30' E 008°26'6312.7
2014-Jul-09 06:34N 57°51' E 010°17'1312.9
2014-Jul-09 05:34N 57°50' E 010°41'1212.0
2014-Jul-09 04:34N 57°42' E 010°59'1313.0
2014-Jul-09 03:33N 57°33' E 011°16'1211.9
2014-Jul-09 02:33N 57°23' E 011°29'1212.4
2014-Jul-09 01:33N 57°12' E 011°37'1312.3
2014-Jul-09 00:32N 56°60' E 011°44'1212.5
2014-Jul-08 23:33N 56°48' E 011°52'1211.6
2014-Jul-08 22:33N 56°37' E 011°45'9010.7
2014-Jul-08 14:12N 55°11' E 011°03'1111.2
2014-Jul-08 13:13N 55°00' E 010°59'2110.1
2014-Jul-08 11:07N 54°39' E 010°51'911.8
2014-Jul-08 10:22N 54°36' E 011°05'1012.3
2014-Jul-08 09:34N 54°33' E 011°21'1212.4
2014-Jul-08 08:33N 54°27' E 011°41'1211.6
2014-Jul-08 07:34N 54°26' E 012°01'9 9.3
2014-Jul-08 06:33N 54°31' E 012°14'8 8.0
2014-Jul-08 05:33N 54°38' E 012°21'9 9.4
2014-Jul-08 04:33N 54°43' E 012°35'8 8.4
2014-Jul-08 03:34N 54°47' E 012°48'1010.4
2014-Jul-08 02:34N 54°51' E 013°04'1211.9
2014-Jul-08 01:33N 54°55' E 013°24'1211.7
2014-Jul-08 00:33N 54°60' E 013°43'1211.9
2014-Jul-07 23:32N 55°04' E 014°02'1511.9
2014-Jul-07 22:16N 55°16' E 014°20'911.8
2014-Jul-07 21:30N 55°23' E 014°29'1111.5
2014-Jul-07 20:32N 55°30' E 014°45'1111.6
2014-Jul-07 19:33N 55°35' E 015°03'1211.6
2014-Jul-07 18:33N 55°39' E 015°21'1211.7
2014-Jul-07 17:34N 55°42' E 015°42'1111.4
2014-Jul-07 16:34N 55°45' E 016°01'1111.0
2014-Jul-07 15:34N 55°48' E 016°20'1111.0
2014-Jul-07 14:34N 55°50' E 016°39'1211.5
2014-Jul-07 13:33N 55°53' E 016°59'1212.4
2014-Jul-07 12:33N 55°56' E 017°20'1212.3
2014-Jul-07 11:33N 55°60' E 017°42'1312.4
2014-Jul-07 10:31N 56°07' E 018°01'1212.4
2014-Jul-07 09:33N 56°13' E 018°19'2612.1
2014-Jul-07 07:27N 56°30' E 018°53'1112.4
2014-Jul-07 06:33N 56°40' E 019°03'1312.5
2014-Jul-07 05:30N 56°52' E 019°14'1212.4
2014-Jul-07 04:33N 57°02' E 019°25'1612.3
2014-Jul-07 03:15N 57°16' E 019°39'16712.1
2014-Jul-06 13:29N 59°32' E 022°43'1212.5
2014-Jul-06 12:33N 59°35' E 023°05'1212.3
2014-Jul-06 11:33N 59°39' E 023°29'1212.4
2014-Jul-06 10:34N 59°42' E 023°52'1212.2
2014-Jul-06 09:33N 59°46' E 024°15'1212.2
2014-Jul-06 08:33N 59°49' E 024°39'1412.4
2014-Jul-06 07:25N 59°52' E 025°06'1212.4
2014-Jul-06 06:27N 59°54' E 025°30'1112.3
2014-Jul-06 05:33N 59°56' E 025°52'1212.4
2014-Jul-06 04:34N 59°59' E 026°15'1212.1
2014-Jul-06 03:33N 60°01' E 026°39'1212.2
2014-Jul-06 02:33N 59°60' E 027°03'1212.3
2014-Jul-06 01:33N 60°06' E 027°25'  

Dump ship's entire track history